sensor_id;sensor_type;location;lat;lon;timestamp;P1;durP1;ratioP1;P2;durP2;ratioP2
7503;SDS011;3793;48.136;11.536;2024-02-15T00:00:59;2.60;;;1.80;;
7503;SDS011;3793;48.136;11.536;2024-02-15T00:03:26;2.87;;;1.80;;
7503;SDS011;3793;48.136;11.536;2024-02-15T00:05:53;4.63;;;2.07;;
7503;SDS011;3793;48.136;11.536;2024-02-15T00:08:20;2.33;;;1.80;;
7503;SDS011;3793;48.136;11.536;2024-02-15T00:10:48;2.97;;;1.90;;
7503;SDS011;3793;48.136;11.536;2024-02-15T00:13:15;2.40;;;1.80;;
7503;SDS011;3793;48.136;11.536;2024-02-15T00:15:42;2.20;;;1.63;;
7503;SDS011;3793;48.136;11.536;2024-02-15T00:18:08;2.07;;;1.33;;
7503;SDS011;3793;48.136;11.536;2024-02-15T00:20:35;2.93;;;1.80;;
7503;SDS011;3793;48.136;11.536;2024-02-15T00:23:04;4.60;;;1.70;;
7503;SDS011;3793;48.136;11.536;2024-02-15T00:25:31;1.93;;;1.53;;
7503;SDS011;3793;48.136;11.536;2024-02-15T00:27:59;2.67;;;1.90;;
7503;SDS011;3793;48.136;11.536;2024-02-15T00:30:27;6.10;;;1.60;;
7503;SDS011;3793;48.136;11.536;2024-02-15T00:32:53;2.50;;;1.87;;
7503;SDS011;3793;48.136;11.536;2024-02-15T00:35:20;2.27;;;1.70;;
7503;SDS011;3793;48.136;11.536;2024-02-15T00:37:47;3.03;;;1.80;;
7503;SDS011;3793;48.136;11.536;2024-02-15T00:40:15;3.50;;;1.63;;
7503;SDS011;3793;48.136;11.536;2024-02-15T00:42:41;3.50;;;1.50;;
7503;SDS011;3793;48.136;11.536;2024-02-15T00:45:10;2.10;;;1.67;;
7503;SDS011;3793;48.136;11.536;2024-02-15T00:47:36;2.60;;;1.63;;
7503;SDS011;3793;48.136;11.536;2024-02-15T00:50:04;2.37;;;1.70;;
7503;SDS011;3793;48.136;11.536;2024-02-15T00:52:30;2.70;;;1.60;;
7503;SDS011;3793;48.136;11.536;2024-02-15T00:54:57;3.33;;;2.00;;
7503;SDS011;3793;48.136;11.536;2024-02-15T00:57:24;4.20;;;2.00;;
7503;SDS011;3793;48.136;11.536;2024-02-15T00:59:51;1.70;;;1.37;;
7503;SDS011;3793;48.136;11.536;2024-02-15T01:02:20;1.63;;;1.43;;
7503;SDS011;3793;48.136;11.536;2024-02-15T01:04:47;2.57;;;1.23;;
7503;SDS011;3793;48.136;11.536;2024-02-15T01:07:13;1.90;;;1.47;;
7503;SDS011;3793;48.136;11.536;2024-02-15T01:09:40;1.93;;;1.60;;
7503;SDS011;3793;48.136;11.536;2024-02-15T01:12:07;2.20;;;1.70;;
7503;SDS011;3793;48.136;11.536;2024-02-15T01:14:35;2.30;;;1.87;;
7503;SDS011;3793;48.136;11.536;2024-02-15T01:17:02;2.20;;;1.40;;
7503;SDS011;3793;48.136;11.536;2024-02-15T01:19:30;3.43;;;1.50;;
7503;SDS011;3793;48.136;11.536;2024-02-15T01:21:57;3.13;;;1.57;;
7503;SDS011;3793;48.136;11.536;2024-02-15T01:24:24;1.57;;;1.40;;
7503;SDS011;3793;48.136;11.536;2024-02-15T01:26:51;1.77;;;1.37;;
7503;SDS011;3793;48.136;11.536;2024-02-15T01:29:19;1.70;;;1.33;;
7503;SDS011;3793;48.136;11.536;2024-02-15T01:31:46;1.60;;;1.20;;
7503;SDS011;3793;48.136;11.536;2024-02-15T01:34:14;2.23;;;1.30;;
7503;SDS011;3793;48.136;11.536;2024-02-15T01:36:42;1.37;;;1.23;;
7503;SDS011;3793;48.136;11.536;2024-02-15T01:39:08;1.33;;;1.23;;
7503;SDS011;3793;48.136;11.536;2024-02-15T01:41:35;1.63;;;1.33;;
7503;SDS011;3793;48.136;11.536;2024-02-15T01:44:02;2.10;;;1.50;;
7503;SDS011;3793;48.136;11.536;2024-02-15T01:46:28;4.33;;;1.70;;
7503;SDS011;3793;48.136;11.536;2024-02-15T01:48:56;1.37;;;1.20;;
7503;SDS011;3793;48.136;11.536;2024-02-15T01:51:23;2.53;;;1.50;;
7503;SDS011;3793;48.136;11.536;2024-02-15T01:53:52;2.13;;;1.30;;
7503;SDS011;3793;48.136;11.536;2024-02-15T01:56:19;4.33;;;1.50;;
7503;SDS011;3793;48.136;11.536;2024-02-15T01:58:46;1.40;;;1.30;;
7503;SDS011;3793;48.136;11.536;2024-02-15T02:01:13;4.73;;;1.30;;
7503;SDS011;3793;48.136;11.536;2024-02-15T02:03:41;2.17;;;1.50;;
7503;SDS011;3793;48.136;11.536;2024-02-15T02:06:07;1.70;;;1.33;;
7503;SDS011;3793;48.136;11.536;2024-02-15T02:08:34;1.77;;;1.63;;
7503;SDS011;3793;48.136;11.536;2024-02-15T02:11:02;3.77;;;1.57;;
7503;SDS011;3793;48.136;11.536;2024-02-15T02:13:29;1.83;;;1.50;;
7503;SDS011;3793;48.136;11.536;2024-02-15T02:15:56;1.43;;;1.33;;
7503;SDS011;3793;48.136;11.536;2024-02-15T02:18:25;3.20;;;1.70;;
7503;SDS011;3793;48.136;11.536;2024-02-15T02:20:51;1.40;;;1.30;;
7503;SDS011;3793;48.136;11.536;2024-02-15T02:23:20;2.17;;;1.73;;
7503;SDS011;3793;48.136;11.536;2024-02-15T02:25:49;2.23;;;1.60;;
7503;SDS011;3793;48.136;11.536;2024-02-15T02:28:16;2.37;;;1.60;;
7503;SDS011;3793;48.136;11.536;2024-02-15T02:30:43;2.63;;;1.53;;
7503;SDS011;3793;48.136;11.536;2024-02-15T02:33:11;1.30;;;1.10;;
7503;SDS011;3793;48.136;11.536;2024-02-15T02:35:43;2.67;;;1.40;;
7503;SDS011;3793;48.136;11.536;2024-02-15T02:38:10;2.20;;;1.70;;
7503;SDS011;3793;48.136;11.536;2024-02-15T02:40:37;1.30;;;1.20;;
7503;SDS011;3793;48.136;11.536;2024-02-15T02:43:05;2.17;;;1.53;;
7503;SDS011;3793;48.136;11.536;2024-02-15T02:45:32;2.67;;;1.40;;
7503;SDS011;3793;48.136;11.536;2024-02-15T02:47:58;1.00;;;1.00;;
7503;SDS011;3793;48.136;11.536;2024-02-15T02:50:25;2.50;;;1.50;;
7503;SDS011;3793;48.136;11.536;2024-02-15T02:52:52;1.50;;;1.40;;
7503;SDS011;3793;48.136;11.536;2024-02-15T02:55:19;1.50;;;1.20;;
7503;SDS011;3793;48.136;11.536;2024-02-15T02:57:45;2.93;;;1.40;;
7503;SDS011;3793;48.136;11.536;2024-02-15T03:00:14;1.60;;;1.13;;
7503;SDS011;3793;48.136;11.536;2024-02-15T03:02:41;1.50;;;1.40;;
7503;SDS011;3793;48.136;11.536;2024-02-15T03:05:08;1.67;;;1.47;;
7503;SDS011;3793;48.136;11.536;2024-02-15T03:07:36;1.70;;;1.60;;
7503;SDS011;3793;48.136;11.536;2024-02-15T03:10:03;3.67;;;1.90;;
7503;SDS011;3793;48.136;11.536;2024-02-15T03:12:33;2.13;;;1.70;;
7503;SDS011;3793;48.136;11.536;2024-02-15T03:15:00;1.70;;;1.13;;
7503;SDS011;3793;48.136;11.536;2024-02-15T03:17:28;2.57;;;1.63;;
7503;SDS011;3793;48.136;11.536;2024-02-15T03:19:56;1.70;;;1.60;;
7503;SDS011;3793;48.136;11.536;2024-02-15T03:22:23;1.77;;;1.50;;
7503;SDS011;3793;48.136;11.536;2024-02-15T03:24:51;2.23;;;1.47;;
7503;SDS011;3793;48.136;11.536;2024-02-15T03:27:17;1.50;;;1.40;;
7503;SDS011;3793;48.136;11.536;2024-02-15T03:29:48;2.63;;;1.43;;
7503;SDS011;3793;48.136;11.536;2024-02-15T03:32:15;1.47;;;1.37;;
7503;SDS011;3793;48.136;11.536;2024-02-15T03:34:43;2.03;;;1.20;;
7503;SDS011;3793;48.136;11.536;2024-02-15T03:37:10;2.20;;;1.47;;
7503;SDS011;3793;48.136;11.536;2024-02-15T03:39:37;1.60;;;1.37;;
7503;SDS011;3793;48.136;11.536;2024-02-15T03:42:04;2.80;;;1.73;;
7503;SDS011;3793;48.136;11.536;2024-02-15T03:44:31;1.63;;;1.43;;
7503;SDS011;3793;48.136;11.536;2024-02-15T03:46:57;2.50;;;1.60;;
7503;SDS011;3793;48.136;11.536;2024-02-15T03:49:24;1.60;;;1.30;;
7503;SDS011;3793;48.136;11.536;2024-02-15T03:51:53;3.47;;;1.83;;
7503;SDS011;3793;48.136;11.536;2024-02-15T03:54:20;2.87;;;1.50;;
7503;SDS011;3793;48.136;11.536;2024-02-15T03:56:48;2.40;;;1.77;;
7503;SDS011;3793;48.136;11.536;2024-02-15T03:59:17;2.23;;;1.80;;
7503;SDS011;3793;48.136;11.536;2024-02-15T04:01:47;2.07;;;1.57;;
7503;SDS011;3793;48.136;11.536;2024-02-15T04:04:13;3.27;;;1.60;;
7503;SDS011;3793;48.136;11.536;2024-02-15T04:06:40;3.27;;;1.27;;
7503;SDS011;3793;48.136;11.536;2024-02-15T04:09:09;4.20;;;1.90;;
7503;SDS011;3793;48.136;11.536;2024-02-15T04:11:36;4.70;;;1.93;;
7503;SDS011;3793;48.136;11.536;2024-02-15T04:14:04;3.67;;;1.70;;
7503;SDS011;3793;48.136;11.536;2024-02-15T04:16:30;2.60;;;1.70;;
7503;SDS011;3793;48.136;11.536;2024-02-15T04:18:58;2.13;;;1.50;;
7503;SDS011;3793;48.136;11.536;2024-02-15T04:21:25;2.30;;;1.60;;
7503;SDS011;3793;48.136;11.536;2024-02-15T04:23:52;3.77;;;1.90;;
7503;SDS011;3793;48.136;11.536;2024-02-15T04:26:20;4.97;;;1.87;;
7503;SDS011;3793;48.136;11.536;2024-02-15T04:28:51;2.20;;;1.90;;
7503;SDS011;3793;48.136;11.536;2024-02-15T04:31:18;3.23;;;1.90;;
7503;SDS011;3793;48.136;11.536;2024-02-15T04:33:51;2.03;;;1.47;;
7503;SDS011;3793;48.136;11.536;2024-02-15T04:36:18;2.83;;;2.03;;
7503;SDS011;3793;48.136;11.536;2024-02-15T04:38:49;2.87;;;1.70;;
7503;SDS011;3793;48.136;11.536;2024-02-15T04:41:16;2.27;;;1.57;;
7503;SDS011;3793;48.136;11.536;2024-02-15T04:43:46;2.80;;;2.00;;
7503;SDS011;3793;48.136;11.536;2024-02-15T04:46:13;4.17;;;1.73;;
7503;SDS011;3793;48.136;11.536;2024-02-15T04:48:40;3.00;;;1.83;;
7503;SDS011;3793;48.136;11.536;2024-02-15T04:51:08;3.60;;;1.80;;
7503;SDS011;3793;48.136;11.536;2024-02-15T04:53:35;3.43;;;1.97;;
7503;SDS011;3793;48.136;11.536;2024-02-15T04:56:01;5.23;;;1.80;;
7503;SDS011;3793;48.136;11.536;2024-02-15T04:58:34;3.33;;;1.90;;
7503;SDS011;3793;48.136;11.536;2024-02-15T05:01:03;6.07;;;2.13;;
7503;SDS011;3793;48.136;11.536;2024-02-15T05:03:30;2.77;;;2.00;;
7503;SDS011;3793;48.136;11.536;2024-02-15T05:05:59;2.10;;;1.70;;
7503;SDS011;3793;48.136;11.536;2024-02-15T05:08:26;3.53;;;1.90;;
7503;SDS011;3793;48.136;11.536;2024-02-15T05:10:53;3.90;;;1.57;;
7503;SDS011;3793;48.136;11.536;2024-02-15T05:13:23;4.60;;;2.30;;
7503;SDS011;3793;48.136;11.536;2024-02-15T05:15:50;2.37;;;1.60;;
7503;SDS011;3793;48.136;11.536;2024-02-15T05:18:18;2.37;;;1.93;;
7503;SDS011;3793;48.136;11.536;2024-02-15T05:20:45;2.87;;;1.80;;
7503;SDS011;3793;48.136;11.536;2024-02-15T05:23:12;4.07;;;1.87;;
7503;SDS011;3793;48.136;11.536;2024-02-15T05:25:40;2.43;;;1.70;;
7503;SDS011;3793;48.136;11.536;2024-02-15T05:28:06;3.23;;;1.90;;
7503;SDS011;3793;48.136;11.536;2024-02-15T05:30:34;2.90;;;2.00;;
7503;SDS011;3793;48.136;11.536;2024-02-15T05:33:03;2.87;;;2.13;;
7503;SDS011;3793;48.136;11.536;2024-02-15T05:35:31;2.90;;;1.83;;
7503;SDS011;3793;48.136;11.536;2024-02-15T05:37:58;2.23;;;1.87;;
7503;SDS011;3793;48.136;11.536;2024-02-15T05:40:24;2.97;;;1.87;;
7503;SDS011;3793;48.136;11.536;2024-02-15T05:42:54;2.20;;;1.80;;
7503;SDS011;3793;48.136;11.536;2024-02-15T05:45:28;3.60;;;2.47;;
7503;SDS011;3793;48.136;11.536;2024-02-15T05:47:57;6.77;;;2.53;;
7503;SDS011;3793;48.136;11.536;2024-02-15T05:50:25;2.80;;;2.03;;
7503;SDS011;3793;48.136;11.536;2024-02-15T05:52:56;5.10;;;2.00;;
7503;SDS011;3793;48.136;11.536;2024-02-15T05:55:24;1.80;;;1.70;;
7503;SDS011;3793;48.136;11.536;2024-02-15T05:57:51;3.40;;;1.90;;
7503;SDS011;3793;48.136;11.536;2024-02-15T06:00:18;3.43;;;2.23;;
7503;SDS011;3793;48.136;11.536;2024-02-15T06:02:45;4.70;;;3.03;;
7503;SDS011;3793;48.136;11.536;2024-02-15T06:05:11;1.70;;;1.60;;
7503;SDS011;3793;48.136;11.536;2024-02-15T06:07:41;3.47;;;1.90;;
7503;SDS011;3793;48.136;11.536;2024-02-15T06:10:09;4.13;;;1.83;;
7503;SDS011;3793;48.136;11.536;2024-02-15T06:12:36;3.10;;;2.20;;
7503;SDS011;3793;48.136;11.536;2024-02-15T06:15:03;2.57;;;1.70;;
7503;SDS011;3793;48.136;11.536;2024-02-15T06:17:30;3.47;;;1.70;;
7503;SDS011;3793;48.136;11.536;2024-02-15T06:19:57;7.07;;;2.10;;
7503;SDS011;3793;48.136;11.536;2024-02-15T06:22:25;2.70;;;1.80;;
7503;SDS011;3793;48.136;11.536;2024-02-15T06:24:52;3.23;;;2.00;;
7503;SDS011;3793;48.136;11.536;2024-02-15T06:27:20;4.07;;;1.90;;
7503;SDS011;3793;48.136;11.536;2024-02-15T06:29:49;3.30;;;1.90;;
7503;SDS011;3793;48.136;11.536;2024-02-15T06:32:33;5.40;;;2.43;;
7503;SDS011;3793;48.136;11.536;2024-02-15T06:35:17;4.07;;;2.00;;
7503;SDS011;3793;48.136;11.536;2024-02-15T06:38:01;2.70;;;2.07;;
7503;SDS011;3793;48.136;11.536;2024-02-15T06:40:45;4.17;;;1.70;;
7503;SDS011;3793;48.136;11.536;2024-02-15T06:43:13;2.97;;;2.00;;
7503;SDS011;3793;48.136;11.536;2024-02-15T06:45:41;4.90;;;2.57;;
7503;SDS011;3793;48.136;11.536;2024-02-15T06:48:11;8.00;;;2.53;;
7503;SDS011;3793;48.136;11.536;2024-02-15T06:50:38;3.77;;;2.50;;
7503;SDS011;3793;48.136;11.536;2024-02-15T06:53:05;4.20;;;2.03;;
7503;SDS011;3793;48.136;11.536;2024-02-15T06:55:32;4.17;;;2.10;;
7503;SDS011;3793;48.136;11.536;2024-02-15T06:57:59;7.23;;;2.60;;
7503;SDS011;3793;48.136;11.536;2024-02-15T07:00:27;2.80;;;2.00;;
7503;SDS011;3793;48.136;11.536;2024-02-15T07:02:55;6.03;;;2.57;;
7503;SDS011;3793;48.136;11.536;2024-02-15T07:05:22;4.40;;;2.73;;
7503;SDS011;3793;48.136;11.536;2024-02-15T07:07:49;4.53;;;2.40;;
7503;SDS011;3793;48.136;11.536;2024-02-15T07:10:18;3.60;;;2.40;;
7503;SDS011;3793;48.136;11.536;2024-02-15T07:12:44;9.00;;;2.90;;
7503;SDS011;3793;48.136;11.536;2024-02-15T07:15:11;6.17;;;2.50;;
7503;SDS011;3793;48.136;11.536;2024-02-15T07:17:39;4.03;;;2.17;;
7503;SDS011;3793;48.136;11.536;2024-02-15T07:20:07;3.23;;;2.07;;
7503;SDS011;3793;48.136;11.536;2024-02-15T07:22:35;3.10;;;2.00;;
7503;SDS011;3793;48.136;11.536;2024-02-15T07:25:04;3.33;;;1.97;;
7503;SDS011;3793;48.136;11.536;2024-02-15T07:27:31;2.63;;;1.80;;
7503;SDS011;3793;48.136;11.536;2024-02-15T07:30:00;3.77;;;1.90;;
7503;SDS011;3793;48.136;11.536;2024-02-15T07:32:27;6.83;;;2.40;;
7503;SDS011;3793;48.136;11.536;2024-02-15T07:34:55;4.23;;;2.10;;
7503;SDS011;3793;48.136;11.536;2024-02-15T07:37:22;4.23;;;2.47;;
7503;SDS011;3793;48.136;11.536;2024-02-15T07:39:51;4.50;;;2.20;;
7503;SDS011;3793;48.136;11.536;2024-02-15T07:42:17;4.43;;;1.90;;
7503;SDS011;3793;48.136;11.536;2024-02-15T07:44:43;3.30;;;1.70;;
7503;SDS011;3793;48.136;11.536;2024-02-15T07:47:09;3.63;;;1.93;;
7503;SDS011;3793;48.136;11.536;2024-02-15T07:49:36;4.03;;;2.07;;
7503;SDS011;3793;48.136;11.536;2024-02-15T07:52:05;7.73;;;1.73;;
7503;SDS011;3793;48.136;11.536;2024-02-15T07:54:32;2.77;;;1.93;;
7503;SDS011;3793;48.136;11.536;2024-02-15T07:56:58;5.97;;;1.70;;
7503;SDS011;3793;48.136;11.536;2024-02-15T07:59:25;2.73;;;1.80;;
7503;SDS011;3793;48.136;11.536;2024-02-15T08:01:53;5.07;;;1.70;;
7503;SDS011;3793;48.136;11.536;2024-02-15T08:04:20;2.83;;;1.70;;
7503;SDS011;3793;48.136;11.536;2024-02-15T08:06:48;3.23;;;1.77;;
7503;SDS011;3793;48.136;11.536;2024-02-15T08:09:18;3.20;;;1.60;;
7503;SDS011;3793;48.136;11.536;2024-02-15T08:11:47;1.67;;;1.13;;
7503;SDS011;3793;48.136;11.536;2024-02-15T08:14:13;4.60;;;1.50;;
7503;SDS011;3793;48.136;11.536;2024-02-15T08:16:40;2.60;;;1.37;;
7503;SDS011;3793;48.136;11.536;2024-02-15T08:19:07;2.03;;;1.30;;
7503;SDS011;3793;48.136;11.536;2024-02-15T08:21:34;2.40;;;1.53;;
7503;SDS011;3793;48.136;11.536;2024-02-15T08:24:01;2.97;;;1.50;;
7503;SDS011;3793;48.136;11.536;2024-02-15T08:26:32;1.83;;;1.20;;
7503;SDS011;3793;48.136;11.536;2024-02-15T08:29:00;2.10;;;1.50;;
7503;SDS011;3793;48.136;11.536;2024-02-15T08:31:28;2.57;;;1.43;;
7503;SDS011;3793;48.136;11.536;2024-02-15T08:33:55;3.57;;;1.30;;
7503;SDS011;3793;48.136;11.536;2024-02-15T08:36:22;2.93;;;1.40;;
7503;SDS011;3793;48.136;11.536;2024-02-15T08:38:49;3.10;;;1.70;;
7503;SDS011;3793;48.136;11.536;2024-02-15T08:41:16;2.20;;;1.40;;
7503;SDS011;3793;48.136;11.536;2024-02-15T08:43:47;3.63;;;1.50;;
7503;SDS011;3793;48.136;11.536;2024-02-15T08:46:14;2.83;;;1.63;;
7503;SDS011;3793;48.136;11.536;2024-02-15T08:48:41;2.20;;;1.30;;
7503;SDS011;3793;48.136;11.536;2024-02-15T08:51:08;2.63;;;1.40;;
7503;SDS011;3793;48.136;11.536;2024-02-15T08:53:35;1.70;;;1.40;;
7503;SDS011;3793;48.136;11.536;2024-02-15T08:56:03;3.07;;;1.20;;
7503;SDS011;3793;48.136;11.536;2024-02-15T08:58:30;4.47;;;1.53;;
7503;SDS011;3793;48.136;11.536;2024-02-15T09:00:58;4.43;;;1.70;;
7503;SDS011;3793;48.136;11.536;2024-02-15T09:03:25;2.27;;;1.40;;
7503;SDS011;3793;48.136;11.536;2024-02-15T09:05:52;1.57;;;1.47;;
7503;SDS011;3793;48.136;11.536;2024-02-15T09:08:19;2.23;;;1.43;;
7503;SDS011;3793;48.136;11.536;2024-02-15T09:10:46;2.67;;;1.30;;
7503;SDS011;3793;48.136;11.536;2024-02-15T09:13:13;1.47;;;1.33;;
7503;SDS011;3793;48.136;11.536;2024-02-15T09:15:40;1.43;;;1.33;;
7503;SDS011;3793;48.136;11.536;2024-02-15T09:18:08;4.37;;;1.60;;
7503;SDS011;3793;48.136;11.536;2024-02-15T09:20:35;3.73;;;1.37;;
7503;SDS011;3793;48.136;11.536;2024-02-15T09:23:05;3.63;;;1.57;;
7503;SDS011;3793;48.136;11.536;2024-02-15T09:25:34;2.97;;;1.70;;
7503;SDS011;3793;48.136;11.536;2024-02-15T09:28:02;2.60;;;1.90;;
7503;SDS011;3793;48.136;11.536;2024-02-15T09:30:29;2.97;;;1.50;;
7503;SDS011;3793;48.136;11.536;2024-02-15T09:32:57;4.10;;;1.63;;
7503;SDS011;3793;48.136;11.536;2024-02-15T09:35:26;2.60;;;1.73;;
7503;SDS011;3793;48.136;11.536;2024-02-15T09:37:55;5.80;;;2.00;;
7503;SDS011;3793;48.136;11.536;2024-02-15T09:40:21;3.20;;;2.03;;
7503;SDS011;3793;48.136;11.536;2024-02-15T09:42:51;3.13;;;1.57;;
7503;SDS011;3793;48.136;11.536;2024-02-15T09:45:18;4.57;;;1.87;;
7503;SDS011;3793;48.136;11.536;2024-02-15T09:47:46;2.33;;;1.50;;
7503;SDS011;3793;48.136;11.536;2024-02-15T09:50:15;5.20;;;1.70;;
7503;SDS011;3793;48.136;11.536;2024-02-15T09:52:45;2.90;;;1.60;;
7503;SDS011;3793;48.136;11.536;2024-02-15T09:55:12;3.27;;;1.80;;
7503;SDS011;3793;48.136;11.536;2024-02-15T09:57:41;1.80;;;1.47;;
7503;SDS011;3793;48.136;11.536;2024-02-15T10:00:09;2.10;;;1.50;;
7503;SDS011;3793;48.136;11.536;2024-02-15T10:02:38;1.73;;;1.40;;
7503;SDS011;3793;48.136;11.536;2024-02-15T10:05:09;2.20;;;1.23;;
7503;SDS011;3793;48.136;11.536;2024-02-15T10:07:37;2.23;;;1.30;;
7503;SDS011;3793;48.136;11.536;2024-02-15T10:10:15;2.53;;;1.50;;
7503;SDS011;3793;48.136;11.536;2024-02-15T10:12:44;1.90;;;0.90;;
7503;SDS011;3793;48.136;11.536;2024-02-15T10:15:20;2.23;;;1.00;;
7503;SDS011;3793;48.136;11.536;2024-02-15T10:17:53;1.25;;;1.00;;
7503;SDS011;3793;48.136;11.536;2024-02-15T10:20:20;1.58;;;1.15;;
7503;SDS011;3793;48.136;11.536;2024-02-15T10:22:51;3.08;;;1.30;;
7503;SDS011;3793;48.136;11.536;2024-02-15T10:25:19;2.47;;;0.93;;
7503;SDS011;3793;48.136;11.536;2024-02-15T10:27:47;1.48;;;0.85;;
7503;SDS011;3793;48.136;11.536;2024-02-15T10:30:15;1.77;;;0.77;;
7503;SDS011;3793;48.136;11.536;2024-02-15T10:32:42;0.98;;;0.75;;
7503;SDS011;3793;48.136;11.536;2024-02-15T10:35:10;0.95;;;0.80;;
7503;SDS011;3793;48.136;11.536;2024-02-15T10:37:40;2.28;;;1.00;;
7503;SDS011;3793;48.136;11.536;2024-02-15T10:40:08;2.78;;;1.00;;
7503;SDS011;3793;48.136;11.536;2024-02-15T10:42:39;2.05;;;1.10;;
7503;SDS011;3793;48.136;11.536;2024-02-15T10:45:08;3.55;;;1.40;;
7503;SDS011;3793;48.136;11.536;2024-02-15T10:47:36;2.25;;;1.08;;
7503;SDS011;3793;48.136;11.536;2024-02-15T10:50:04;2.97;;;1.15;;
7503;SDS011;3793;48.136;11.536;2024-02-15T10:52:31;1.15;;;1.00;;
7503;SDS011;3793;48.136;11.536;2024-02-15T10:55:01;1.70;;;0.90;;
7503;SDS011;3793;48.136;11.536;2024-02-15T10:57:29;3.03;;;1.10;;
7503;SDS011;3793;48.136;11.536;2024-02-15T10:59:59;1.20;;;0.98;;
7503;SDS011;3793;48.136;11.536;2024-02-15T11:02:36;2.40;;;1.20;;
7503;SDS011;3793;48.136;11.536;2024-02-15T11:05:06;1.55;;;0.98;;
7503;SDS011;3793;48.136;11.536;2024-02-15T11:07:35;4.15;;;1.52;;
7503;SDS011;3793;48.136;11.536;2024-02-15T11:10:02;1.27;;;1.00;;
7503;SDS011;3793;48.136;11.536;2024-02-15T11:12:34;1.20;;;0.98;;
7503;SDS011;3793;48.136;11.536;2024-02-15T11:15:03;1.83;;;0.98;;
7503;SDS011;3793;48.136;11.536;2024-02-15T11:17:44;2.47;;;1.20;;
7503;SDS011;3793;48.136;11.536;2024-02-15T11:20:23;3.63;;;1.40;;
7503;SDS011;3793;48.136;11.536;2024-02-15T11:23:10;4.47;;;1.05;;
7503;SDS011;3793;48.136;11.536;2024-02-15T11:25:38;1.40;;;0.90;;
7503;SDS011;3793;48.136;11.536;2024-02-15T11:30:50;3.60;;;1.48;;
7503;SDS011;3793;48.136;11.536;2024-02-15T11:33:27;2.65;;;1.13;;
7503;SDS011;3793;48.136;11.536;2024-02-15T11:36:03;2.70;;;1.35;;
7503;SDS011;3793;48.136;11.536;2024-02-15T11:38:32;1.65;;;1.00;;
7503;SDS011;3793;48.136;11.536;2024-02-15T11:40:59;1.42;;;1.10;;
7503;SDS011;3793;48.136;11.536;2024-02-15T11:43:49;1.98;;;1.35;;
7503;SDS011;3793;48.136;11.536;2024-02-15T11:46:23;2.78;;;1.38;;
7503;SDS011;3793;48.136;11.536;2024-02-15T11:48:52;1.48;;;1.00;;
7503;SDS011;3793;48.136;11.536;2024-02-15T11:51:28;2.38;;;0.95;;
7503;SDS011;3793;48.136;11.536;2024-02-15T11:54:02;2.40;;;0.82;;
7503;SDS011;3793;48.136;11.536;2024-02-15T11:56:31;3.75;;;1.02;;
7503;SDS011;3793;48.136;11.536;2024-02-15T11:59:02;1.20;;;0.88;;
7503;SDS011;3793;48.136;11.536;2024-02-15T12:01:33;1.33;;;0.88;;
7503;SDS011;3793;48.136;11.536;2024-02-15T12:04:18;2.50;;;1.17;;
7503;SDS011;3793;48.136;11.536;2024-02-15T12:07:02;1.55;;;1.02;;
7503;SDS011;3793;48.136;11.536;2024-02-15T12:09:46;1.30;;;1.10;;
7503;SDS011;3793;48.136;11.536;2024-02-15T12:12:30;2.10;;;0.88;;
7503;SDS011;3793;48.136;11.536;2024-02-15T12:15:14;1.75;;;1.15;;
7503;SDS011;3793;48.136;11.536;2024-02-15T12:21:35;2.92;;;0.95;;
7503;SDS011;3793;48.136;11.536;2024-02-15T12:24:06;3.10;;;1.08;;
7503;SDS011;3793;48.136;11.536;2024-02-15T12:26:33;2.47;;;1.20;;
7503;SDS011;3793;48.136;11.536;2024-02-15T12:29:00;4.47;;;1.50;;
7503;SDS011;3793;48.136;11.536;2024-02-15T12:31:27;2.90;;;1.27;;
7503;SDS011;3793;48.136;11.536;2024-02-15T12:34:00;6.43;;;1.25;;
7503;SDS011;3793;48.136;11.536;2024-02-15T12:36:31;2.75;;;1.15;;
7503;SDS011;3793;48.136;11.536;2024-02-15T12:39:01;2.10;;;1.20;;
7503;SDS011;3793;48.136;11.536;2024-02-15T12:41:29;1.58;;;1.40;;
7503;SDS011;3793;48.136;11.536;2024-02-15T12:43:56;1.92;;;1.10;;
7503;SDS011;3793;48.136;11.536;2024-02-15T12:46:23;1.30;;;0.95;;
7503;SDS011;3793;48.136;11.536;2024-02-15T12:49:05;3.40;;;1.23;;
7503;SDS011;3793;48.136;11.536;2024-02-15T12:51:32;1.92;;;1.17;;
7503;SDS011;3793;48.136;11.536;2024-02-15T12:54:09;1.15;;;1.00;;
7503;SDS011;3793;48.136;11.536;2024-02-15T12:56:36;1.35;;;0.95;;
7503;SDS011;3793;48.136;11.536;2024-02-15T12:59:04;1.38;;;1.08;;
7503;SDS011;3793;48.136;11.536;2024-02-15T13:01:31;4.45;;;1.00;;
7503;SDS011;3793;48.136;11.536;2024-02-15T13:03:59;1.65;;;1.20;;
7503;SDS011;3793;48.136;11.536;2024-02-15T13:06:26;1.70;;;0.90;;
7503;SDS011;3793;48.136;11.536;2024-02-15T13:08:54;0.90;;;0.85;;
7503;SDS011;3793;48.136;11.536;2024-02-15T13:11:22;3.03;;;0.82;;
7503;SDS011;3793;48.136;11.536;2024-02-15T13:13:51;1.58;;;0.77;;
7503;SDS011;3793;48.136;11.536;2024-02-15T13:16:17;1.80;;;0.88;;
7503;SDS011;3793;48.136;11.536;2024-02-15T13:18:45;2.45;;;0.80;;
7503;SDS011;3793;48.136;11.536;2024-02-15T13:21:12;3.15;;;1.10;;
7503;SDS011;3793;48.136;11.536;2024-02-15T13:23:39;0.95;;;0.90;;
7503;SDS011;3793;48.136;11.536;2024-02-15T13:26:05;1.50;;;1.00;;
7503;SDS011;3793;48.136;11.536;2024-02-15T13:28:35;1.75;;;1.05;;
7503;SDS011;3793;48.136;11.536;2024-02-15T13:31:02;2.22;;;1.35;;
7503;SDS011;3793;48.136;11.536;2024-02-15T13:33:29;1.60;;;1.23;;
7503;SDS011;3793;48.136;11.536;2024-02-15T13:35:57;2.33;;;1.15;;
7503;SDS011;3793;48.136;11.536;2024-02-15T13:38:23;1.65;;;1.30;;
7503;SDS011;3793;48.136;11.536;2024-02-15T13:40:51;1.50;;;0.98;;
7503;SDS011;3793;48.136;11.536;2024-02-15T13:43:20;1.63;;;1.17;;
7503;SDS011;3793;48.136;11.536;2024-02-15T13:45:48;1.23;;;0.90;;
7503;SDS011;3793;48.136;11.536;2024-02-15T13:48:16;2.15;;;1.02;;
7503;SDS011;3793;48.136;11.536;2024-02-15T13:50:43;1.38;;;0.90;;
7503;SDS011;3793;48.136;11.536;2024-02-15T13:53:10;2.60;;;1.15;;
7503;SDS011;3793;48.136;11.536;2024-02-15T13:55:38;1.45;;;1.05;;
7503;SDS011;3793;48.136;11.536;2024-02-15T13:58:05;1.77;;;1.23;;
7503;SDS011;3793;48.136;11.536;2024-02-15T14:00:33;3.08;;;1.30;;
7503;SDS011;3793;48.136;11.536;2024-02-15T14:03:01;1.08;;;0.90;;
7503;SDS011;3793;48.136;11.536;2024-02-15T14:05:29;1.42;;;0.80;;
7503;SDS011;3793;48.136;11.536;2024-02-15T14:07:56;0.95;;;0.88;;
7503;SDS011;3793;48.136;11.536;2024-02-15T14:10:24;1.40;;;1.10;;
7503;SDS011;3793;48.136;11.536;2024-02-15T14:12:52;3.50;;;1.38;;
7503;SDS011;3793;48.136;11.536;2024-02-15T14:15:20;1.25;;;0.90;;
7503;SDS011;3793;48.136;11.536;2024-02-15T14:17:47;3.97;;;1.20;;
7503;SDS011;3793;48.136;11.536;2024-02-15T14:20:15;4.32;;;1.13;;
7503;SDS011;3793;48.136;11.536;2024-02-15T14:22:43;3.10;;;1.27;;
7503;SDS011;3793;48.136;11.536;2024-02-15T14:25:10;3.50;;;1.27;;
7503;SDS011;3793;48.136;11.536;2024-02-15T14:27:38;2.70;;;1.20;;
7503;SDS011;3793;48.136;11.536;2024-02-15T14:30:05;2.95;;;1.33;;
7503;SDS011;3793;48.136;11.536;2024-02-15T14:32:49;1.13;;;1.00;;
7503;SDS011;3793;48.136;11.536;2024-02-15T14:35:32;2.22;;;1.10;;
7503;SDS011;3793;48.136;11.536;2024-02-15T14:38:01;1.58;;;0.98;;
7503;SDS011;3793;48.136;11.536;2024-02-15T14:40:30;2.25;;;1.10;;
7503;SDS011;3793;48.136;11.536;2024-02-15T14:42:58;4.55;;;1.27;;
7503;SDS011;3793;48.136;11.536;2024-02-15T14:45:24;1.70;;;1.08;;
7503;SDS011;3793;48.136;11.536;2024-02-15T14:47:51;1.67;;;1.08;;
7503;SDS011;3793;48.136;11.536;2024-02-15T14:50:18;1.25;;;1.15;;
7503;SDS011;3793;48.136;11.536;2024-02-15T14:52:47;1.27;;;0.98;;
7503;SDS011;3793;48.136;11.536;2024-02-15T14:55:14;2.83;;;1.38;;
7503;SDS011;3793;48.136;11.536;2024-02-15T14:57:42;2.13;;;1.40;;
7503;SDS011;3793;48.136;11.536;2024-02-15T15:00:09;2.42;;;1.02;;
7503;SDS011;3793;48.136;11.536;2024-02-15T15:02:39;4.85;;;1.15;;
7503;SDS011;3793;48.136;11.536;2024-02-15T15:05:06;4.07;;;1.10;;
7503;SDS011;3793;48.136;11.536;2024-02-15T15:07:52;2.67;;;0.90;;
7503;SDS011;3793;48.136;11.536;2024-02-15T15:10:36;1.90;;;0.90;;
7503;SDS011;3793;48.136;11.536;2024-02-15T15:13:20;3.05;;;1.50;;
7503;SDS011;3793;48.136;11.536;2024-02-15T15:15:48;3.30;;;1.27;;